Woodville, New York
Current Conditions -  °F | °C
As of 8:56 PM on Monday 20 Oct 2014 (Local Time) from KART Reporting Station
Light Rain Light Rain  
Wind Chill: 51°   Ceiling: 4800
Heat Index: 51°   Visibility: 10mi
Dew Point: 40°   Wind: 3mph
Humidity: 66%   Direction: 170°S
Pressure: 29.86"   Gusts: NA
Location:  43.8534°N, 76.251°W
Report Text: KART 210056Z AUTO 17003KT 10SM -RA BKN048 OVC060 11/04 A2986 RMK AO2 RAE06B49 SLP113 P0000 T01060044
Loading
Personal Weather Stations






























Interactive Weather Map
Tropical Storm Tracking
New forecast layout! Learn more

10-Day Weather Forecast

Advertisements
Track Severe Weather on mobile